Time;durP1;ratioP1;P1;durP2;ratioP2;P2;SDS_P1;SDS_P2;PMS_P1;PMS_P2;Temp;Humidity;BMP_temperature;BMP_pressure;BME280_temperature;BME280_humidity;BME280_pressure;Samples;Min_cycle;Max_cycle;Signal;HPM_P1;HPM_P2
2022/08/15 00:01:36;;;;;;;8.52;7.70;;;;;;;20.67;58.14;97573.47;4182855;28;20106;-71
2022/08/15 00:03:40;;;;;;;8.70;7.80;;;;;;;20.64;57.93;97572.38;4185158;28;20049;-71
2022/08/15 00:05:41;;;;;;;9.23;8.30;;;;;;;20.59;58.21;97567.38;4184444;28;20083;-71
2022/08/15 00:07:42;;;;;;;8.20;7.40;;;;;;;20.60;58.33;97573.75;4185004;28;20040;-71
2022/08/15 00:09:42;;;;;;;8.68;7.88;;;;;;;20.56;58.67;97561.91;4184426;28;20048;-71
2022/08/15 00:11:45;;;;;;;9.95;7.60;;;;;;;20.51;58.84;97568.13;4183245;28;20049;-71
2022/08/15 00:13:55;;;;;;;9.50;7.38;;;;;;;20.46;59.29;97564.72;4185650;28;20392;-71
2022/08/15 00:15:56;;;;;;;8.25;7.45;;;;;;;20.49;59.25;97565.81;4185174;28;20137;-71
2022/08/15 00:17:57;;;;;;;9.20;7.90;;;;;;;20.46;59.38;97567.53;4184809;28;20045;-71
2022/08/15 00:19:57;;;;;;;7.97;7.18;;;;;;;20.44;59.65;97566.44;4183666;28;20061;-71
2022/08/15 00:22:03;;;;;;;9.23;8.30;;;;;;;20.41;60.06;97565.28;4184122;28;20041;-71
2022/08/15 00:24:04;;;;;;;8.15;7.35;;;;;;;20.37;60.15;97563.91;4182815;28;20049;-71
2022/08/15 00:26:05;;;;;;;8.68;7.78;;;;;;;20.31;60.71;97571.38;4184367;28;20788;-71
2022/08/15 00:28:07;;;;;;;10.43;7.85;;;;;;;20.29;60.87;97563.41;4184269;28;20048;-71
2022/08/15 00:30:09;;;;;;;8.65;7.45;;;;;;;20.28;60.83;97572.31;4184492;28;20376;-71
2022/08/15 00:32:13;;;;;;;8.32;7.53;;;;;;;20.28;60.48;97569.50;4184163;28;20074;-71
2022/08/15 00:34:16;;;;;;;9.50;7.63;;;;;;;20.31;60.47;97569.34;4187710;28;20041;-71
2022/08/15 00:36:16;;;;;;;9.18;7.55;;;;;;;20.35;60.31;97561.53;4186295;28;20059;-71
2022/08/15 00:38:24;;;;;;;8.77;7.82;;;;;;;20.37;60.31;97570.28;4187291;28;20246;-71
2022/08/15 00:40:25;;;;;;;9.98;8.57;;;;;;;20.38;59.90;97559.84;4187666;28;20048;-71
2022/08/15 00:42:26;;;;;;;11.00;8.23;;;;;;;20.38;60.07;97559.84;4188333;28;20485;-71
2022/08/15 00:44:34;;;;;;;11.60;7.97;;;;;;;20.39;59.96;97562.16;4186690;28;20503;-71
2022/08/15 00:46:36;;;;;;;9.40;8.02;;;;;;;20.42;59.48;97560.44;4187293;28;20048;-71
2022/08/15 00:48:44;;;;;;;9.95;8.13;;;;;;;20.37;60.25;97552.66;4187861;28;20044;-71
2022/08/15 00:50:44;;;;;;;14.38;7.65;;;;;;;20.34;60.44;97556.38;4185902;28;20102;-71
2022/08/15 00:52:44;;;;;;;9.20;8.20;;;;;;;20.27;60.63;97554.66;4186295;28;20036;-71
2022/08/15 00:55:00;;;;;;;14.40;8.23;;;;;;;20.24;60.87;97552.00;4187421;28;20040;-71
2022/08/15 00:57:08;;;;;;;9.48;7.75;;;;;;;20.19;60.98;97547.78;4187713;28;20049;-70
2022/08/15 00:59:11;;;;;;;9.20;7.55;;;;;;;20.18;60.97;97544.19;4186445;28;20055;-70
2022/08/15 01:01:14;;;;;;;9.48;7.65;;;;;;;20.19;61.00;97551.38;4186367;28;20458;-70
2022/08/15 01:03:16;;;;;;;;;;;;;;;20.16;61.56;97546.69;4185600;28;20094;-70
2022/08/15 01:05:16;;;;;;;9.63;8.30;;;;;;;20.14;61.56;97543.56;4187017;28;19925;-70
2022/08/15 01:07:18;;;;;;;9.57;7.53;;;;;;;20.13;61.63;97541.22;4186186;28;20061;-70
2022/08/15 01:09:19;;;;;;;12.00;8.18;;;;;;;20.11;61.79;97541.69;4184619;28;20037;-70
2022/08/15 01:11:31;;;;;;;9.93;7.95;;;;;;;20.12;61.89;97546.06;4187136;28;20037;-70
2022/08/15 01:13:33;;;;;;;11.27;8.63;;;;;;;20.11;61.94;97546.53;4186271;28;20418;-70
2022/08/15 01:15:33;;;;;;;10.68;8.30;;;;;;;20.07;62.20;97543.84;4186909;28;20049;-71
2022/08/15 01:17:34;;;;;;;13.20;7.93;;;;;;;20.06;61.84;97539.50;4185711;28;20079;-71
2022/08/15 01:19:40;;;;;;;10.68;8.07;;;;;;;20.06;62.00;97545.09;4185259;28;20040;-71
2022/08/15 01:21:48;;;;;;;9.65;8.02;;;;;;;20.04;63.07;97538.41;4186370;28;20056;-71
2022/08/15 01:24:00;;;;;;;8.77;7.72;;;;;;;20.01;63.25;97537.28;4185178;28;20029;-71
2022/08/15 01:26:06;;;;;;;11.20;8.45;;;;;;;19.94;63.92;97537.56;4186901;28;20052;-71
2022/08/15 01:28:08;;;;;;;10.93;7.88;;;;;;;19.92;63.83;97531.63;4187056;28;20740;-71
2022/08/15 01:30:12;;;;;;;8.68;7.78;;;;;;;19.84;64.00;97528.34;4186018;28;20469;-71
2022/08/15 01:32:14;;;;;;;9.98;8.45;;;;;;;19.83;64.17;97526.00;4187038;28;20036;-71
2022/08/15 01:34:15;;;;;;;10.07;8.10;;;;;;;19.79;64.49;97531.78;4186221;28;20037;-71
2022/08/15 01:36:17;;;;;;;11.35;8.90;;;;;;;19.74;64.27;97525.97;4186413;28;20040;-71
2022/08/15 01:38:26;;;;;;;9.60;8.07;;;;;;;19.75;64.38;97536.75;4186033;28;20102;-71
2022/08/15 01:40:43;;;;;;;10.77;8.35;;;;;;;19.69;64.74;97530.16;4186466;28;20040;-71
2022/08/15 01:42:47;;;;;;;9.93;8.77;;;;;;;19.64;64.63;97528.75;4187138;28;20049;-71
2022/08/15 01:44:50;;;;;;;9.85;8.52;;;;;;;19.63;64.42;97530.00;4185742;28;20040;-71
2022/08/15 01:46:59;;;;;;;10.95;8.45;;;;;;;19.63;63.74;97530.00;4185893;28;20208;-71
2022/08/15 01:49:08;;;;;;;9.35;8.25;;;;;;;19.67;63.51;97535.47;4184451;28;20374;-70
2022/08/15 01:51:12;;;;;;;12.75;8.02;;;;;;;19.69;63.56;97532.19;4185163;28;20047;-70
2022/08/15 01:53:15;;;;;;;11.43;8.63;;;;;;;19.70;63.25;97522.56;4186540;28;20044;-70
2022/08/15 01:55:18;;;;;;;9.23;8.10;;;;;;;19.71;63.31;97530.50;4183696;28;20101;-70
2022/08/15 01:57:19;;;;;;;8.77;7.90;;;;;;;19.67;63.47;97520.66;4186800;28;20044;-70
2022/08/15 01:59:22;;;;;;;8.93;7.90;;;;;;;19.67;63.33;97521.44;4184716;28;20055;-71
2022/08/15 02:01:47;;;;;;;13.98;9.45;;;;;;;19.66;63.39;97519.09;4187290;28;20246;-71
2022/08/15 02:03:48;;;;;;;11.80;8.02;;;;;;;19.65;63.18;97512.69;4187216;28;20040;-71
2022/08/15 02:05:49;;;;;;;8.83;7.93;;;;;;;19.67;63.29;97513.00;4186769;28;20580;-71
2022/08/15 02:07:49;;;;;;;10.23;8.23;;;;;;;19.66;62.95;97516.28;4185606;28;20025;-71
2022/08/15 02:09:50;;;;;;;9.18;8.27;;;;;;;19.67;62.58;97501.78;4185674;28;20052;-71
2022/08/15 02:11:52;;;;;;;10.73;8.93;;;;;;;19.67;63.01;97512.22;4186524;28;20051;-70
2022/08/15 02:13:54;;;;;;;10.18;8.57;;;;;;;19.63;62.95;97501.94;4186567;28;20036;-70
2022/08/15 02:15:55;;;;;;;;;;;;;;;19.64;62.69;97494.31;4186685;28;20059;-70
2022/08/15 02:17:55;;;;;;;10.35;8.57;;;;;;;19.60;63.13;97504.88;4186344;28;20050;-70
2022/08/15 02:19:55;;;;;;;9.70;8.02;;;;;;;19.54;63.43;97495.50;4186055;28;20389;-70
2022/08/15 02:21:56;;;;;;;9.40;8.40;;;;;;;19.49;63.65;97493.28;4184346;28;20466;-70
2022/08/15 02:23:57;;;;;;;9.55;8.23;;;;;;;19.40;64.58;97499.63;4185446;28;20136;-70
2022/08/15 02:25:58;;;;;;;10.02;8.77;;;;;;;19.31;64.54;97497.56;4186146;28;20044;-70
2022/08/15 02:27:58;;;;;;;9.23;7.82;;;;;;;19.30;64.54;97495.22;4185251;28;20040;-70
2022/08/15 02:30:09;;;;;;;9.13;8.23;;;;;;;19.32;64.58;97489.94;4183928;28;20048;-70
2022/08/15 02:32:16;;;;;;;10.90;8.05;;;;;;;19.28;64.55;97492.91;4182271;28;20376;-70
2022/08/15 02:34:17;;;;;;;10.18;8.40;;;;;;;19.25;65.64;97499.41;4184993;28;20098;-71
2022/08/15 02:36:18;;;;;;;9.23;7.93;;;;;;;19.16;65.77;97495.78;4186107;28;20038;-71
2022/08/15 02:38:20;;;;;;;9.45;8.50;;;;;;;19.11;66.31;97496.34;4185062;28;20388;-71
2022/08/15 02:40:21;;;;;;;10.98;8.52;;;;;;;19.08;66.51;97496.03;4186032;28;20058;-71
2022/08/15 02:42:21;;;;;;;12.20;8.73;;;;;;;19.05;66.41;97493.38;4185955;28;20055;-71
2022/08/15 02:44:23;;;;;;;11.80;8.43;;;;;;;19.05;66.67;97499.78;4185033;28;20060;-71
2022/08/15 02:46:23;;;;;;;13.50;8.97;;;;;;;18.97;66.89;97492.09;4185001;28;20578;-71
2022/08/15 02:48:24;;;;;;;12.27;8.35;;;;;;;18.93;66.82;97491.44;4184276;28;20040;-70
2022/08/15 02:50:25;;;;;;;9.02;8.13;;;;;;;18.92;66.94;97498.28;4185185;28;20044;-70
2022/08/15 02:52:25;;;;;;;10.38;8.55;;;;;;;18.88;66.64;97483.63;4185207;28;20045;-70
2022/08/15 02:54:27;;;;;;;12.05;9.48;;;;;;;18.88;66.47;97487.22;4185411;28;20040;-70
2022/08/15 02:56:28;;;;;;;9.55;8.27;;;;;;;18.85;66.64;97490.91;4185354;28;20047;-70
2022/08/15 02:58:28;;;;;;;9.60;8.50;;;;;;;18.85;66.56;97490.91;4185231;28;20461;-70
2022/08/15 03:00:29;;;;;;;8.60;7.80;;;;;;;18.83;66.49;97493.41;4185496;28;20052;-70
2022/08/15 03:02:29;;;;;;;9.48;8.48;;;;;;;18.86;66.18;97484.06;4184215;28;20082;-70
2022/08/15 03:04:34;;;;;;;11.95;9.00;;;;;;;18.87;66.40;97491.25;4184215;28;20048;-70
2022/08/15 03:06:36;;;;;;;12.32;9.25;;;;;;;18.82;66.82;97489.03;4183887;28;20052;-70
2022/08/15 03:08:40;;;;;;;9.88;8.50;;;;;;;18.76;67.07;97500.03;4185174;28;20073;-70
2022/08/15 03:10:41;;;;;;;10.45;7.97;;;;;;;18.72;66.66;97493.81;4185385;28;20124;-71
2022/08/15 03:12:57;;;;;;;8.85;8.00;;;;;;;18.70;66.96;97498.28;4184531;28;20489;-71
2022/08/15 03:14:58;;;;;;;11.85;8.35;;;;;;;18.68;66.89;97495.94;4184964;28;20051;-71
2022/08/15 03:16:59;;;;;;;10.85;8.68;;;;;;;18.69;66.36;97491.13;4185307;28;20033;-70
2022/08/15 03:19:01;;;;;;;9.77;8.70;;;;;;;18.72;65.73;97493.81;4185543;28;20482;-70
2022/08/15 03:21:06;;;;;;;9.95;8.77;;;;;;;18.69;65.88;97491.91;4184742;28;20396;-70
2022/08/15 03:23:07;;;;;;;11.57;8.40;;;;;;;18.65;66.18;97491.25;4182565;28;20048;-70
2022/08/15 03:25:08;;;;;;;8.93;7.68;;;;;;;18.58;66.53;97493.50;4185047;28;20037;-70
2022/08/15 03:27:09;;;;;;;11.02;8.82;;;;;;;18.50;66.64;97490.94;4184533;28;20071;-70
2022/08/15 03:29:09;;;;;;;10.63;8.80;;;;;;;18.47;66.74;97477.88;4181307;28;20118;-70
2022/08/15 03:31:11;;;;;;;9.90;8.50;;;;;;;18.49;66.58;97485.81;4182182;28;20041;-70
2022/08/15 03:33:11;;;;;;;9.05;8.15;;;;;;;18.40;66.88;97478.13;4181192;28;20436;-70
2022/08/15 03:35:12;;;;;;;12.85;8.68;;;;;;;18.40;66.84;97480.91;4183748;28;20048;-70
2022/08/15 03:37:13;;;;;;;13.32;8.88;;;;;;;18.42;66.92;97481.25;4183510;28;20397;-70
2022/08/15 03:39:15;;;;;;;12.55;9.10;;;;;;;18.41;67.56;97490.09;4185492;28;20094;-70
2022/08/15 03:41:16;;;;;;;10.63;8.68;;;;;;;18.38;67.97;97480.59;4185659;28;20144;-70
2022/08/15 03:43:21;;;;;;;14.55;9.20;;;;;;;18.35;68.10;97484.28;4183564;28;20037;-71
2022/08/15 03:45:21;;;;;;;13.85;9.60;;;;;;;18.33;67.66;97483.19;4182624;28;20044;-71
2022/08/15 03:47:22;;;;;;;10.35;8.20;;;;;;;18.30;67.96;97479.28;4184848;28;20128;-71
2022/08/15 03:49:22;;;;;;;11.85;9.32;;;;;;;18.25;67.90;97475.03;4183728;28;20044;-70
2022/08/15 03:51:25;;;;;;;13.80;9.65;;;;;;;18.25;67.81;97485.47;4183414;28;20045;-70
2022/08/15 03:53:27;;;;;;;;;;;;;;;18.21;68.20;97480.00;4185083;28;20443;-70
2022/08/15 03:55:30;;;;;;;13.52;9.02;;;;;;;18.20;67.66;97484.03;4184599;28;19921;-70
2022/08/15 03:57:30;;;;;;;15.88;9.85;;;;;;;18.16;68.13;97479.78;4184927;28;20535;-71
2022/08/15 03:59:31;;;;;;;12.50;9.65;;;;;;;18.14;68.08;97487.84;4184611;28;20036;-71
2022/08/15 04:01:34;;;;;;;12.65;10.30;;;;;;;18.17;67.93;97484.91;4184550;28;20794;-71
2022/08/15 04:03:35;;;;;;;14.73;9.43;;;;;;;18.16;67.79;97482.56;4184143;28;20048;-71
2022/08/15 04:05:36;;;;;;;14.73;9.90;;;;;;;18.16;68.56;97485.38;4184908;28;20049;-71
2022/08/15 04:07:37;;;;;;;11.60;9.32;;;;;;;18.15;69.05;97490.19;4184904;28;20054;-71
2022/08/15 04:09:38;;;;;;;10.85;8.88;;;;;;;18.11;69.54;97489.53;4187398;28;20443;-71
2022/08/15 04:11:38;;;;;;;14.70;9.15;;;;;;;18.13;69.72;97489.09;4187809;28;20127;-71
2022/08/15 04:13:39;;;;;;;10.38;8.82;;;;;;;18.13;69.89;97497.50;4186724;28;20111;-71
2022/08/15 04:15:41;;;;;;;10.00;8.93;;;;;;;18.12;70.02;97493.91;4187162;28;20045;-71
2022/08/15 04:17:42;;;;;;;10.77;8.63;;;;;;;18.10;70.20;97487.19;4188870;28;20036;-70
2022/08/15 04:19:43;;;;;;;12.52;9.23;;;;;;;18.08;70.32;97493.22;4187436;28;20147;-70
2022/08/15 04:21:43;;;;;;;9.65;8.38;;;;;;;18.08;70.32;97500.84;4187515;28;20135;-70
2022/08/15 04:23:45;;;;;;;11.25;9.20;;;;;;;18.08;70.15;97495.25;4187510;28;20192;-70
2022/08/15 04:25:46;;;;;;;11.43;8.82;;;;;;;18.07;69.95;97499.28;4187879;28;20044;-70
2022/08/15 04:27:48;;;;;;;12.07;8.98;;;;;;;18.04;70.20;97491.78;4187674;28;20499;-70
2022/08/15 04:29:48;;;;;;;16.30;9.05;;;;;;;18.04;69.80;97494.56;4185727;28;20041;-70
2022/08/15 04:31:49;;;;;;;11.57;8.70;;;;;;;18.03;69.70;97485.41;4186836;28;20052;-70
2022/08/15 04:33:49;;;;;;;17.30;9.02;;;;;;;18.09;69.96;97491.22;4187422;28;20070;-71
2022/08/15 04:35:55;;;;;;;12.82;9.27;;;;;;;18.10;69.89;97489.97;4187236;28;20097;-71
2022/08/15 04:37:56;;;;;;;14.68;8.95;;;;;;;18.12;70.17;97488.31;4186442;28;20040;-71
2022/08/15 04:39:57;;;;;;;12.23;9.65;;;;;;;18.11;70.26;97485.94;4187805;28;20043;-71
2022/08/15 04:42:01;;;;;;;11.77;9.27;;;;;;;18.12;70.33;97482.72;4186244;28;20593;-71
2022/08/15 04:44:03;;;;;;;16.20;9.23;;;;;;;18.12;70.48;97484.69;4186293;28;20047;-71
2022/08/15 04:46:05;;;;;;;10.20;9.18;;;;;;;18.11;70.43;97491.53;4186973;28;20399;-70
2022/08/15 04:48:06;;;;;;;10.57;8.93;;;;;;;18.10;70.13;97492.78;4186580;28;20039;-71
2022/08/15 04:50:07;;;;;;;14.90;9.63;;;;;;;18.06;70.26;97484.50;4187724;28;20271;-71
2022/08/15 04:52:16;;;;;;;11.75;9.18;;;;;;;18.04;70.58;97489.78;4187528;28;20270;-71
2022/08/15 04:54:16;;;;;;;10.63;9.35;;;;;;;18.08;70.38;97481.25;4186444;28;20503;-71
2022/08/15 04:56:17;;;;;;;10.10;8.85;;;;;;;18.09;70.33;97500.41;4186993;28;20044;-71
2022/08/15 04:58:17;;;;;;;10.70;8.45;;;;;;;18.10;70.31;97498.38;4186804;28;20043;-70
2022/08/15 05:00:27;;;;;;;12.50;9.50;;;;;;;18.13;70.48;97495.47;4186291;28;20448;-70
2022/08/15 05:02:27;;;;;;;10.98;9.10;;;;;;;18.13;70.50;97487.06;4186416;28;20303;-71
2022/08/15 05:04:27;;;;;;;10.50;8.77;;;;;;;18.12;70.72;97482.72;4187654;28;20037;-71
2022/08/15 05:06:28;;;;;;;16.17;9.82;;;;;;;18.17;70.07;97484.91;4186075;28;20200;-71
2022/08/15 05:08:31;;;;;;;16.38;10.35;;;;;;;18.18;70.09;97488.50;4186209;28;20153;-71
2022/08/15 05:10:32;;;;;;;12.25;8.82;;;;;;;18.19;70.24;97488.03;4186650;28;20698;-71
2022/08/15 05:12:35;;;;;;;14.48;9.57;;;;;;;18.24;70.06;97483.91;4186262;28;20051;-71
2022/08/15 05:14:36;;;;;;;13.23;9.23;;;;;;;18.28;69.86;97481.75;4185565;28;20222;-71
2022/08/15 05:16:36;;;;;;;11.60;9.30;;;;;;;18.32;69.59;97482.41;4186568;28;20043;-71
2022/08/15 05:18:42;;;;;;;13.68;9.10;;;;;;;18.35;69.78;97477.91;4186027;28;20493;-71
2022/08/15 05:20:43;;;;;;;18.58;9.10;;;;;;;18.39;69.41;97473.75;4186255;28;20041;-71
2022/08/15 05:23:05;;;;;;;12.30;8.95;;;;;;;18.48;69.50;97471.03;4186970;28;20468;-71
2022/08/15 05:25:06;;;;;;;11.23;9.35;;;;;;;18.52;69.55;97468.88;4186467;28;20048;-71
2022/08/15 05:27:06;;;;;;;11.40;9.15;;;;;;;18.62;69.72;97471.72;4185998;28;20040;-71
2022/08/15 05:29:07;;;;;;;12.18;9.32;;;;;;;18.64;69.89;97475.66;4185996;28;20531;-70
2022/08/15 05:31:09;;;;;;;13.25;9.88;;;;;;;18.73;69.69;97469.38;4185156;28;20299;-70
2022/08/15 05:33:13;;;;;;;14.68;8.77;;;;;;;18.82;69.77;97471.44;4187782;28;20381;-70
2022/08/15 05:35:15;;;;;;;12.82;9.13;;;;;;;18.85;69.31;97471.31;4184971;28;20064;-70
2022/08/15 05:37:17;;;;;;;12.23;9.47;;;;;;;18.90;69.24;97479.13;4185549;28;20056;-71
2022/08/15 05:39:24;;;;;;;12.88;9.07;;;;;;;19.00;68.92;97477.94;4184963;28;20436;-71
2022/08/15 05:41:24;;;;;;;13.90;9.25;;;;;;;19.06;69.19;97478.91;4186242;28;20086;-71
2022/08/15 05:43:36;;;;;;;12.45;9.55;;;;;;;19.09;68.49;97469.56;4186818;28;20139;-71
2022/08/15 05:45:43;;;;;;;17.50;9.85;;;;;;;19.15;68.42;97468.97;4184931;28;20377;-71
2022/08/15 05:48:05;;;;;;;11.75;8.60;;;;;;;19.18;68.16;97463.22;4184516;28;20239;-71
2022/08/15 05:50:19;;;;;;;10.20;8.45;;;;;;;19.22;68.45;97463.09;4086245;28;20045;-70
2022/08/15 05:52:30;;;;;;;10.05;7.85;;;;;;;19.28;67.96;97462.03;4185481;28;20456;-70
2022/08/15 05:55:09;;;;;;;12.50;9.00;;;;;;;19.36;68.54;97470.94;4185766;28;20057;-70
2022/08/15 05:57:19;;;;;;;12.30;8.80;;;;;;;19.39;68.33;97467.22;4183672;28;20090;-70
2022/08/15 05:59:30;;;;;;;11.45;9.27;;;;;;;19.47;68.32;97471.31;4185146;28;20040;-70
2022/08/15 06:01:47;;;;;;;13.38;9.63;;;;;;;19.51;67.35;97471.94;4185623;28;20110;-70
2022/08/15 06:03:56;;;;;;;12.73;9.68;;;;;;;19.58;67.61;97468.09;4184953;28;20079;-70
2022/08/15 06:06:04;;;;;;;15.18;8.82;;;;;;;19.60;67.57;97469.19;4184518;28;20032;-70
2022/08/15 06:08:14;;;;;;;12.25;9.68;;;;;;;19.67;67.52;97479.34;4185404;28;20513;-71
2022/08/15 06:10:30;;;;;;;13.30;11.68;;;;;;;19.73;67.51;97473.91;4184800;28;20028;-71
2022/08/15 06:12:43;;;;;;;15.25;11.30;;;;;;;19.78;67.06;97476.13;4185926;28;20155;-71
2022/08/15 06:14:45;;;;;;;;;;;;;;;19.88;66.72;97486.13;4186787;28;20072;-71
2022/08/15 06:16:52;;;;;;;10.35;9.25;;;;;;;19.95;66.79;97483.00;4184747;28;20287;-71
2022/08/15 06:18:55;;;;;;;11.77;9.48;;;;;;;20.06;66.29;97486.13;4185461;28;20053;-71
2022/08/15 06:21:02;;;;;;;12.10;9.63;;;;;;;20.15;65.85;97468.53;4185267;28;20134;-71
2022/08/15 06:23:30;;;;;;;13.00;9.63;;;;;;;20.24;65.53;97470.56;4184313;28;20040;-71
2022/08/15 06:25:55;;;;;;;10.27;9.18;;;;;;;20.35;65.12;97470.84;4183788;28;20048;-71
2022/08/15 06:28:29;;;;;;;11.50;10.30;;;;;;;20.46;65.70;97476.84;4185344;28;20068;-71
2022/08/15 06:30:42;;;;;;;14.52;10.23;;;;;;;20.54;64.06;97469.66;4184183;28;20080;-71
2022/08/15 06:32:48;;;;;;;;;;;;;;;20.68;64.06;97469.00;4185449;28;20049;-71
2022/08/15 06:35:16;;;;;;;11.55;9.80;;;;;;;20.81;63.29;97470.88;4185096;28;19920;-71
2022/08/15 06:37:36;;;;;;;14.93;10.15;;;;;;;20.91;62.86;97469.59;4184712;28;20045;-71
2022/08/15 06:39:51;;;;;;;13.77;10.15;;;;;;;21.07;62.96;97469.25;4183831;28;20136;-70
2022/08/15 06:42:27;;;;;;;11.20;9.35;;;;;;;21.22;62.34;97466.56;4185949;28;20427;-70
2022/08/15 06:44:28;;;;;;;9.90;8.90;;;;;;;21.34;60.72;97464.81;4172530;28;20051;-70
2022/08/15 06:46:33;;;;;;;12.40;9.73;;;;;;;21.43;60.37;97464.75;4185688;28;20055;-70
2022/08/15 06:48:37;;;;;;;12.45;9.55;;;;;;;21.56;60.33;97454.88;4184754;28;20083;-70
2022/08/15 06:50:41;;;;;;;11.95;9.68;;;;;;;21.73;60.68;97458.06;4183991;28;20048;-71
2022/08/15 06:52:50;;;;;;;19.52;9.45;;;;;;;21.81;59.61;97464.91;4186196;28;20041;-71
2022/08/15 06:54:51;;;;;;;10.77;9.43;;;;;;;21.84;59.66;97463.16;4184073;28;20114;-71
2022/08/15 06:57:20;;;;;;;20.30;10.48;;;;;;;21.94;59.37;97464.69;4184749;28;20032;-70
2022/08/15 06:59:36;;;;;;;12.45;8.57;;;;;;;22.10;58.37;97455.06;4183956;28;20041;-70
2022/08/15 07:01:53;;;;;;;13.02;9.40;;;;;;;22.19;58.09;97460.63;4184413;28;20053;-70
2022/08/15 07:04:17;;;;;;;12.20;9.00;;;;;;;22.28;57.57;97454.91;4184232;28;20041;-70
2022/08/15 07:06:29;;;;;;;12.45;9.40;;;;;;;22.41;57.49;97458.22;4184333;28;20176;-71
2022/08/15 07:09:01;;;;;;;9.52;8.48;;;;;;;22.56;57.17;97465.94;4182995;28;20040;-71
2022/08/15 07:11:24;;;;;;;15.10;9.38;;;;;;;22.63;57.93;97457.91;4181241;28;20329;-71
2022/08/15 07:13:31;;;;;;;9.90;8.93;;;;;;;22.68;56.98;97451.59;4177436;28;20055;-71
2022/08/15 07:15:46;;;;;;;11.07;8.63;;;;;;;22.75;55.80;97458.09;4183608;28;20194;-70
2022/08/15 07:17:54;;;;;;;9.80;8.45;;;;;;;22.79;56.86;97459.47;4185310;28;20044;-70
2022/08/15 07:19:55;;;;;;;13.85;9.43;;;;;;;22.86;57.12;97455.53;4184069;28;20043;-71
2022/08/15 07:21:55;;;;;;;12.18;9.55;;;;;;;22.96;56.52;97451.34;4185669;28;20044;-71
2022/08/15 07:24:03;;;;;;;12.60;9.15;;;;;;;23.08;56.38;97457.94;4184814;28;20450;-70
2022/08/15 07:26:14;;;;;;;12.43;9.43;;;;;;;23.20;56.48;97456.88;4184406;28;20271;-70
2022/08/15 07:28:17;;;;;;;11.38;8.63;;;;;;;23.38;55.96;97461.53;4185282;28;20345;-70
2022/08/15 07:30:26;;;;;;;10.30;9.30;;;;;;;23.52;55.44;97460.72;4185450;28;20033;-70
2022/08/15 07:32:45;;;;;;;10.63;9.15;;;;;;;23.57;55.35;97454.38;4184489;28;20276;-70
2022/08/15 07:35:05;;;;;;;13.18;9.68;;;;;;;23.66;55.19;97467.63;4184949;28;20111;-70
2022/08/15 07:37:06;;;;;;;11.98;9.25;;;;;;;23.68;54.81;97459.47;4184488;28;20040;-70
2022/08/15 07:39:24;;;;;;;13.07;9.90;;;;;;;23.74;55.04;97463.91;4183036;28;20047;-70
2022/08/15 07:41:30;;;;;;;14.63;9.43;;;;;;;23.82;54.79;97467.84;4179300;28;20076;-71
2022/08/15 07:43:35;;;;;;;10.05;8.40;;;;;;;23.88;53.45;97465.13;4186952;28;20106;-70
2022/08/15 07:45:39;;;;;;;10.43;8.07;;;;;;;23.89;53.18;97463.06;4187005;28;20511;-70
2022/08/15 07:47:54;;;;;;;9.82;8.32;;;;;;;23.99;54.13;97464.50;4187830;28;20070;-70
2022/08/15 07:50:00;;;;;;;11.13;8.57;;;;;;;24.12;53.10;97470.59;4184459;28;20393;-70
2022/08/15 07:52:16;;;;;;;11.05;8.27;;;;;;;24.27;52.28;97459.22;4186868;28;20429;-70
2022/08/15 07:54:26;;;;;;;10.48;8.48;;;;;;;24.42;52.09;97471.25;4185733;28;20086;-70
2022/08/15 07:56:30;;;;;;;11.95;9.23;;;;;;;24.57;51.24;97452.13;4186602;28;20126;-71
2022/08/15 07:58:33;;;;;;;12.20;10.23;;;;;;;24.77;50.99;97450.56;4188587;28;20119;-71
2022/08/15 08:00:35;;;;;;;10.85;8.88;;;;;;;24.91;50.36;97450.47;4188040;28;20086;-71
2022/08/15 08:02:53;;;;;;;9.35;7.97;;;;;;;25.04;50.11;97447.25;4188601;28;20253;-71
2022/08/15 08:04:53;;;;;;;11.70;8.63;;;;;;;25.09;50.14;97443.69;4186486;28;20132;-71
2022/08/15 08:07:02;;;;;;;8.40;7.28;;;;;;;25.12;49.54;97445.50;4187432;28;20131;-71
2022/08/15 08:09:29;;;;;;;9.07;7.90;;;;;;;25.17;49.62;97441.19;4187411;28;20377;-71
2022/08/15 08:11:33;;;;;;;12.32;8.18;;;;;;;25.00;49.72;97440.25;4186007;28;20056;-71
2022/08/15 08:13:42;;;;;;;9.25;7.63;;;;;;;25.07;49.54;97443.44;4187044;28;20102;-71
2022/08/15 08:16:07;;;;;;;10.38;7.55;;;;;;;25.21;49.57;97438.91;4186740;28;20303;-71
2022/08/15 08:18:35;;;;;;;8.98;7.93;;;;;;;25.27;49.02;97433.28;4186441;28;20546;-71
2022/08/15 08:20:49;;;;;;;10.20;7.63;;;;;;;25.25;48.67;97433.78;4188062;28;20048;-71
2022/08/15 08:23:11;;;;;;;16.00;9.95;;;;;;;25.35;48.27;97437.22;4186532;28;20299;-71
2022/08/15 08:25:30;;;;;;;10.20;7.65;;;;;;;25.46;48.66;97434.47;4187449;28;20048;-71
2022/08/15 08:27:40;;;;;;;8.70;7.75;;;;;;;25.52;48.08;97443.78;4187007;28;20146;-71
2022/08/15 08:29:53;;;;;;;8.75;7.45;;;;;;;25.60;48.34;97436.38;4186809;28;20123;-71
2022/08/15 08:31:56;;;;;;;;;;;;;;;25.67;47.49;97444.41;4187867;28;20525;-71
2022/08/15 08:34:31;;;;;;;8.32;7.53;;;;;;;25.69;47.68;97438.22;4188027;28;19955;-71
2022/08/15 08:37:09;;;;;;;8.77;7.22;;;;;;;25.87;47.56;97440.66;4187199;28;20117;-71
2022/08/15 08:39:17;;;;;;;7.25;6.55;;;;;;;26.08;46.62;97443.38;4187263;28;20037;-71
2022/08/15 08:41:45;;;;;;;7.88;7.07;;;;;;;26.14;46.29;97436.41;4186158;28;20211;-71
2022/08/15 08:44:18;;;;;;;7.78;6.97;;;;;;;26.18;46.09;97445.47;4187239;28;20080;-71
2022/08/15 08:46:28;;;;;;;8.70;7.03;;;;;;;26.22;45.32;97434.66;4161568;28;20194;-70
2022/08/15 08:48:31;;;;;;;8.20;7.40;;;;;;;26.23;45.39;97444.72;4177780;28;20052;-70
2022/08/15 08:50:53;;;;;;;8.60;7.38;;;;;;;26.27;46.04;97438.81;4186839;28;20215;-70
2022/08/15 08:53:01;;;;;;;7.63;6.93;;;;;;;26.31;45.78;97442.16;4185543;28;20336;-71
2022/08/15 08:55:25;;;;;;;10.75;7.90;;;;;;;26.26;45.42;97440.88;4187796;28;20557;-71
2022/08/15 08:57:33;;;;;;;8.98;7.38;;;;;;;26.22;46.15;97448.81;4188580;28;20450;-71
2022/08/15 08:59:43;;;;;;;8.77;6.82;;;;;;;26.26;45.54;97434.44;4186922;28;20055;-71
2022/08/15 09:01:48;;;;;;;8.73;7.40;;;;;;;26.27;45.62;97445.25;4187959;28;20111;-71
2022/08/15 09:03:52;;;;;;;8.85;7.30;;;;;;;26.38;45.81;97444.53;4187530;28;20646;-71
2022/08/15 09:05:58;;;;;;;7.60;6.80;;;;;;;26.43;44.83;97440.97;4188217;28;20078;-71
2022/08/15 09:08:07;;;;;;;11.15;7.28;;;;;;;26.49;45.30;97441.00;4187182;28;20084;-71
2022/08/15 09:10:09;;;;;;;9.90;7.55;;;;;;;26.62;45.29;97443.34;4186111;28;20046;-71
2022/08/15 09:14:43;;;;;;;8.00;7.20;;;;;;;26.77;44.18;97438.97;4186904;28;20051;-71
2022/08/15 09:16:46;;;;;;;8.07;7.28;;;;;;;26.75;44.39;97435.13;4187846;28;20043;-71
2022/08/15 09:19:15;;;;;;;12.07;8.80;;;;;;;26.80;44.92;97440.78;4186938;28;20040;-71
2022/08/15 09:21:18;;;;;;;8.02;7.22;;;;;;;26.83;44.18;97448.28;4185405;28;20041;-71
2022/08/15 09:23:20;;;;;;;8.13;6.88;;;;;;;26.77;44.38;97438.97;4187344;28;20131;-71
2022/08/15 09:25:23;;;;;;;9.77;7.30;;;;;;;26.84;44.05;97449.06;4187649;28;20044;-71
2022/08/15 09:27:42;;;;;;;8.55;7.70;;;;;;;26.80;44.16;97448.53;4187229;28;20048;-71
2022/08/15 09:29:55;;;;;;;7.82;6.95;;;;;;;26.80;43.81;97452.13;4186663;28;20689;-71
2022/08/15 09:32:30;;;;;;;8.60;7.70;;;;;;;26.82;44.07;97451.66;4186019;28;20085;-71
2022/08/15 09:34:42;;;;;;;8.07;7.28;;;;;;;26.83;43.90;97447.50;4186338;28;20497;-71
2022/08/15 09:37:12;;;;;;;7.97;7.00;;;;;;;26.88;43.43;97452.41;4186679;28;20040;-71
2022/08/15 09:39:24;;;;;;;8.98;7.03;;;;;;;26.85;44.19;97451.38;4173140;28;20249;-71
2022/08/15 09:42:06;;;;;;;7.55;6.63;;;;;;;26.87;43.89;97448.03;4186981;28;20056;-71
2022/08/15 09:44:20;;;;;;;10.50;7.65;;;;;;;26.92;44.21;97450.09;4185352;28;20051;-71
2022/08/15 09:46:45;;;;;;;8.18;7.38;;;;;;;27.02;43.72;97448.56;4186762;28;20044;-71
2022/08/15 09:49:04;;;;;;;9.65;7.75;;;;;;;27.05;43.67;97449.63;4157375;28;20084;-71
2022/08/15 09:51:13;;;;;;;15.02;10.90;;;;;;;27.02;43.55;97447.78;4186541;28;20139;-71
2022/08/15 09:53:23;;;;;;;9.82;8.20;;;;;;;27.10;43.15;97448.88;4185787;28;20048;-71
2022/08/15 09:55:44;;;;;;;13.63;7.72;;;;;;;27.14;43.22;97450.16;4186381;28;20045;-71
2022/08/15 09:57:53;;;;;;;8.98;8.05;;;;;;;27.14;43.58;97441.66;4186414;28;20450;-71